sensor_id;sensor_type;location;lat;lon;timestamp;P1;durP1;ratioP1;P2;durP2;ratioP2
21162;SDS011;10739;52.198;20.908;2023-04-25T00:01:24;18.17;;;14.73;;
21162;SDS011;10739;52.198;20.908;2023-04-25T00:03:50;17.63;;;13.80;;
21162;SDS011;10739;52.198;20.908;2023-04-25T00:06:16;16.70;;;13.65;;
21162;SDS011;10739;52.198;20.908;2023-04-25T00:08:45;17.10;;;13.90;;
21162;SDS011;10739;52.198;20.908;2023-04-25T00:11:13;20.15;;;14.88;;
21162;SDS011;10739;52.198;20.908;2023-04-25T00:13:40;17.70;;;14.52;;
21162;SDS011;10739;52.198;20.908;2023-04-25T00:16:07;20.45;;;14.80;;
21162;SDS011;10739;52.198;20.908;2023-04-25T00:18:33;17.33;;;15.13;;
21162;SDS011;10739;52.198;20.908;2023-04-25T00:21:00;20.85;;;15.48;;
21162;SDS011;10739;52.198;20.908;2023-04-25T00:23:26;18.42;;;15.18;;
21162;SDS011;10739;52.198;20.908;2023-04-25T00:25:53;17.40;;;15.43;;
21162;SDS011;10739;52.198;20.908;2023-04-25T00:28:19;18.00;;;15.02;;
21162;SDS011;10739;52.198;20.908;2023-04-25T00:30:45;17.85;;;15.93;;
21162;SDS011;10739;52.198;20.908;2023-04-25T00:33:12;25.02;;;16.30;;
21162;SDS011;10739;52.198;20.908;2023-04-25T00:35:38;17.50;;;15.57;;
21162;SDS011;10739;52.198;20.908;2023-04-25T00:38:05;17.92;;;16.08;;
21162;SDS011;10739;52.198;20.908;2023-04-25T00:40:31;21.33;;;16.42;;
21162;SDS011;10739;52.198;20.908;2023-04-25T00:42:57;19.02;;;15.85;;
21162;SDS011;10739;52.198;20.908;2023-04-25T00:45:26;26.95;;;16.60;;
21162;SDS011;10739;52.198;20.908;2023-04-25T00:47:54;21.55;;;15.85;;
21162;SDS011;10739;52.198;20.908;2023-04-25T00:50:22;22.42;;;17.00;;
21162;SDS011;10739;52.198;20.908;2023-04-25T00:52:50;22.17;;;17.08;;
21162;SDS011;10739;52.198;20.908;2023-04-25T00:55:17;21.25;;;17.02;;
21162;SDS011;10739;52.198;20.908;2023-04-25T00:57:43;19.88;;;16.50;;
21162;SDS011;10739;52.198;20.908;2023-04-25T01:00:10;20.67;;;16.27;;
21162;SDS011;10739;52.198;20.908;2023-04-25T01:02:40;20.75;;;16.65;;
21162;SDS011;10739;52.198;20.908;2023-04-25T01:05:07;19.67;;;16.00;;
21162;SDS011;10739;52.198;20.908;2023-04-25T01:07:34;19.75;;;15.77;;
21162;SDS011;10739;52.198;20.908;2023-04-25T01:10:00;20.02;;;17.02;;
21162;SDS011;10739;52.198;20.908;2023-04-25T01:12:27;22.98;;;17.13;;
21162;SDS011;10739;52.198;20.908;2023-04-25T01:14:54;21.10;;;17.00;;
21162;SDS011;10739;52.198;20.908;2023-04-25T01:17:21;25.08;;;17.25;;
21162;SDS011;10739;52.198;20.908;2023-04-25T01:19:47;18.35;;;16.17;;
21162;SDS011;10739;52.198;20.908;2023-04-25T01:22:14;19.35;;;17.20;;
21162;SDS011;10739;52.198;20.908;2023-04-25T01:24:40;19.42;;;16.50;;
21162;SDS011;10739;52.198;20.908;2023-04-25T01:27:07;19.77;;;16.73;;
21162;SDS011;10739;52.198;20.908;2023-04-25T01:29:34;21.50;;;17.00;;
21162;SDS011;10739;52.198;20.908;2023-04-25T01:32:02;22.05;;;17.83;;
21162;SDS011;10739;52.198;20.908;2023-04-25T01:34:30;21.60;;;17.65;;
21162;SDS011;10739;52.198;20.908;2023-04-25T01:36:57;21.05;;;16.90;;
21162;SDS011;10739;52.198;20.908;2023-04-25T01:39:27;22.80;;;17.80;;
21162;SDS011;10739;52.198;20.908;2023-04-25T01:41:53;22.55;;;16.95;;
21162;SDS011;10739;52.198;20.908;2023-04-25T01:44:20;20.83;;;17.27;;
21162;SDS011;10739;52.198;20.908;2023-04-25T01:46:46;22.58;;;17.45;;
21162;SDS011;10739;52.198;20.908;2023-04-25T01:49:14;21.77;;;17.98;;
21162;SDS011;10739;52.198;20.908;2023-04-25T01:51:40;21.38;;;17.30;;
21162;SDS011;10739;52.198;20.908;2023-04-25T01:54:07;25.27;;;18.33;;
21162;SDS011;10739;52.198;20.908;2023-04-25T01:56:37;23.20;;;19.00;;
21162;SDS011;10739;52.198;20.908;2023-04-25T01:59:05;22.48;;;16.83;;
21162;SDS011;10739;52.198;20.908;2023-04-25T02:01:31;21.13;;;17.08;;
21162;SDS011;10739;52.198;20.908;2023-04-25T02:03:58;20.60;;;17.00;;
21162;SDS011;10739;52.198;20.908;2023-04-25T02:06:24;23.50;;;17.80;;
21162;SDS011;10739;52.198;20.908;2023-04-25T02:08:51;25.75;;;18.17;;
21162;SDS011;10739;52.198;20.908;2023-04-25T02:11:17;20.55;;;16.67;;
21162;SDS011;10739;52.198;20.908;2023-04-25T02:13:43;20.70;;;17.10;;
21162;SDS011;10739;52.198;20.908;2023-04-25T02:16:10;21.23;;;16.60;;
21162;SDS011;10739;52.198;20.908;2023-04-25T02:18:36;19.88;;;17.33;;
21162;SDS011;10739;52.198;20.908;2023-04-25T02:21:02;19.15;;;15.45;;
21162;SDS011;10739;52.198;20.908;2023-04-25T02:23:29;20.88;;;16.33;;
21162;SDS011;10739;52.198;20.908;2023-04-25T02:25:55;17.13;;;15.07;;
21162;SDS011;10739;52.198;20.908;2023-04-25T02:28:23;19.67;;;15.85;;
21162;SDS011;10739;52.198;20.908;2023-04-25T02:30:51;21.67;;;16.42;;
21162;SDS011;10739;52.198;20.908;2023-04-25T02:33:18;18.40;;;16.00;;
21162;SDS011;10739;52.198;20.908;2023-04-25T02:35:46;19.50;;;16.00;;
21162;SDS011;10739;52.198;20.908;2023-04-25T02:38:12;19.23;;;15.43;;
21162;SDS011;10739;52.198;20.908;2023-04-25T02:40:38;21.08;;;15.30;;
21162;SDS011;10739;52.198;20.908;2023-04-25T02:43:05;22.85;;;15.90;;
21162;SDS011;10739;52.198;20.908;2023-04-25T02:45:32;18.35;;;15.77;;
21162;SDS011;10739;52.198;20.908;2023-04-25T02:47:58;20.95;;;16.40;;
21162;SDS011;10739;52.198;20.908;2023-04-25T02:50:25;23.80;;;16.02;;
21162;SDS011;10739;52.198;20.908;2023-04-25T02:52:51;20.63;;;16.40;;
21162;SDS011;10739;52.198;20.908;2023-04-25T02:55:17;18.50;;;15.90;;
21162;SDS011;10739;52.198;20.908;2023-04-25T02:57:43;22.88;;;16.35;;
21162;SDS011;10739;52.198;20.908;2023-04-25T03:00:10;20.92;;;15.23;;
21162;SDS011;10739;52.198;20.908;2023-04-25T03:02:39;20.90;;;15.88;;
21162;SDS011;10739;52.198;20.908;2023-04-25T03:05:06;17.98;;;15.23;;
21162;SDS011;10739;52.198;20.908;2023-04-25T03:07:32;18.67;;;16.30;;
21162;SDS011;10739;52.198;20.908;2023-04-25T03:09:59;22.75;;;17.10;;
21162;SDS011;10739;52.198;20.908;2023-04-25T03:12:25;25.90;;;16.77;;
21162;SDS011;10739;52.198;20.908;2023-04-25T03:14:51;26.60;;;17.27;;
21162;SDS011;10739;52.198;20.908;2023-04-25T03:17:18;19.10;;;15.88;;
21162;SDS011;10739;52.198;20.908;2023-04-25T03:19:44;20.77;;;16.58;;
21162;SDS011;10739;52.198;20.908;2023-04-25T03:22:10;18.92;;;16.20;;
21162;SDS011;10739;52.198;20.908;2023-04-25T03:24:37;20.70;;;15.88;;
21162;SDS011;10739;52.198;20.908;2023-04-25T03:27:03;20.55;;;16.58;;
21162;SDS011;10739;52.198;20.908;2023-04-25T03:29:29;18.65;;;15.30;;
21162;SDS011;10739;52.198;20.908;2023-04-25T03:31:55;18.10;;;14.10;;
21162;SDS011;10739;52.198;20.908;2023-04-25T03:34:22;16.27;;;14.52;;
21162;SDS011;10739;52.198;20.908;2023-04-25T03:36:49;18.33;;;13.85;;
21162;SDS011;10739;52.198;20.908;2023-04-25T03:39:15;20.95;;;14.88;;
21162;SDS011;10739;52.198;20.908;2023-04-25T03:41:41;19.33;;;14.35;;
21162;SDS011;10739;52.198;20.908;2023-04-25T03:44:08;19.13;;;14.88;;
21162;SDS011;10739;52.198;20.908;2023-04-25T03:46:34;18.17;;;13.20;;
21162;SDS011;10739;52.198;20.908;2023-04-25T03:49:00;18.17;;;13.38;;
21162;SDS011;10739;52.198;20.908;2023-04-25T03:51:27;17.98;;;14.48;;
21162;SDS011;10739;52.198;20.908;2023-04-25T03:53:53;18.70;;;12.80;;
21162;SDS011;10739;52.198;20.908;2023-04-25T03:56:19;19.88;;;12.63;;
21162;SDS011;10739;52.198;20.908;2023-04-25T03:58:46;16.55;;;12.90;;
21162;SDS011;10739;52.198;20.908;2023-04-25T04:01:12;13.25;;;11.50;;
21162;SDS011;10739;52.198;20.908;2023-04-25T04:03:38;17.40;;;12.25;;
21162;SDS011;10739;52.198;20.908;2023-04-25T04:06:05;14.55;;;11.90;;
21162;SDS011;10739;52.198;20.908;2023-04-25T04:08:32;13.07;;;11.38;;
21162;SDS011;10739;52.198;20.908;2023-04-25T04:10:59;13.27;;;10.90;;
21162;SDS011;10739;52.198;20.908;2023-04-25T04:13:26;16.80;;;10.68;;
21162;SDS011;10739;52.198;20.908;2023-04-25T04:15:54;18.95;;;10.60;;
21162;SDS011;10739;52.198;20.908;2023-04-25T04:18:21;14.75;;;11.30;;
21162;SDS011;10739;52.198;20.908;2023-04-25T04:20:47;10.88;;;9.77;;
21162;SDS011;10739;52.198;20.908;2023-04-25T04:23:14;11.93;;;10.65;;
21162;SDS011;10739;52.198;20.908;2023-04-25T04:25:40;12.07;;;10.77;;
21162;SDS011;10739;52.198;20.908;2023-04-25T04:28:07;15.85;;;12.35;;
21162;SDS011;10739;52.198;20.908;2023-04-25T04:30:33;13.68;;;11.18;;
21162;SDS011;10739;52.198;20.908;2023-04-25T04:33:01;14.38;;;12.18;;
21162;SDS011;10739;52.198;20.908;2023-04-25T04:35:28;15.80;;;12.65;;
21162;SDS011;10739;52.198;20.908;2023-04-25T04:37:55;17.58;;;12.85;;
21162;SDS011;10739;52.198;20.908;2023-04-25T04:40:21;16.35;;;12.70;;
21162;SDS011;10739;52.198;20.908;2023-04-25T04:42:47;16.80;;;13.20;;
21162;SDS011;10739;52.198;20.908;2023-04-25T04:45:14;21.02;;;13.65;;
21162;SDS011;10739;52.198;20.908;2023-04-25T04:47:41;14.43;;;12.95;;
21162;SDS011;10739;52.198;20.908;2023-04-25T04:50:08;16.20;;;14.07;;
21162;SDS011;10739;52.198;20.908;2023-04-25T04:52:36;15.88;;;14.27;;
21162;SDS011;10739;52.198;20.908;2023-04-25T04:55:04;19.60;;;14.77;;
21162;SDS011;10739;52.198;20.908;2023-04-25T04:57:31;19.17;;;14.32;;
21162;SDS011;10739;52.198;20.908;2023-04-25T04:59:58;17.40;;;15.55;;
21162;SDS011;10739;52.198;20.908;2023-04-25T05:02:25;18.55;;;16.25;;
21162;SDS011;10739;52.198;20.908;2023-04-25T05:04:52;18.95;;;16.00;;
21162;SDS011;10739;52.198;20.908;2023-04-25T05:07:19;18.98;;;16.75;;
21162;SDS011;10739;52.198;20.908;2023-04-25T05:09:45;18.70;;;16.45;;
21162;SDS011;10739;52.198;20.908;2023-04-25T05:12:11;19.15;;;17.13;;
21162;SDS011;10739;52.198;20.908;2023-04-25T05:14:37;21.95;;;16.80;;
21162;SDS011;10739;52.198;20.908;2023-04-25T05:17:04;20.05;;;17.10;;
21162;SDS011;10739;52.198;20.908;2023-04-25T05:19:33;23.92;;;16.88;;
21162;SDS011;10739;52.198;20.908;2023-04-25T05:22:00;19.00;;;15.75;;
21162;SDS011;10739;52.198;20.908;2023-04-25T05:24:27;18.58;;;15.10;;
21162;SDS011;10739;52.198;20.908;2023-04-25T05:26:53;20.83;;;16.52;;
21162;SDS011;10739;52.198;20.908;2023-04-25T05:29:19;18.67;;;15.77;;
21162;SDS011;10739;52.198;20.908;2023-04-25T05:31:46;24.42;;;16.73;;
21162;SDS011;10739;52.198;20.908;2023-04-25T05:34:13;21.67;;;17.90;;
21162;SDS011;10739;52.198;20.908;2023-04-25T05:36:40;20.27;;;17.45;;
21162;SDS011;10739;52.198;20.908;2023-04-25T05:39:06;19.88;;;17.50;;
21162;SDS011;10739;52.198;20.908;2023-04-25T05:41:34;18.88;;;16.10;;
21162;SDS011;10739;52.198;20.908;2023-04-25T05:44:00;19.83;;;16.95;;
21162;SDS011;10739;52.198;20.908;2023-04-25T05:46:27;19.92;;;16.77;;
21162;SDS011;10739;52.198;20.908;2023-04-25T05:48:53;18.77;;;15.60;;
21162;SDS011;10739;52.198;20.908;2023-04-25T05:51:19;21.73;;;16.15;;
21162;SDS011;10739;52.198;20.908;2023-04-25T05:53:46;19.08;;;15.68;;
21162;SDS011;10739;52.198;20.908;2023-04-25T05:56:12;16.92;;;14.98;;
21162;SDS011;10739;52.198;20.908;2023-04-25T05:58:38;17.17;;;14.75;;
21162;SDS011;10739;52.198;20.908;2023-04-25T06:01:05;17.52;;;15.32;;
21162;SDS011;10739;52.198;20.908;2023-04-25T06:03:32;16.85;;;14.82;;
21162;SDS011;10739;52.198;20.908;2023-04-25T06:05:58;16.90;;;15.00;;
21162;SDS011;10739;52.198;20.908;2023-04-25T06:08:25;19.58;;;15.10;;
21162;SDS011;10739;52.198;20.908;2023-04-25T06:10:51;23.20;;;14.50;;
21162;SDS011;10739;52.198;20.908;2023-04-25T06:13:17;17.20;;;15.00;;
21162;SDS011;10739;52.198;20.908;2023-04-25T06:15:44;18.98;;;14.00;;
21162;SDS011;10739;52.198;20.908;2023-04-25T06:18:10;15.75;;;14.05;;
21162;SDS011;10739;52.198;20.908;2023-04-25T06:20:36;15.07;;;13.27;;
21162;SDS011;10739;52.198;20.908;2023-04-25T06:23:02;18.90;;;14.07;;
21162;SDS011;10739;52.198;20.908;2023-04-25T06:25:29;20.02;;;15.60;;
21162;SDS011;10739;52.198;20.908;2023-04-25T06:27:55;19.58;;;15.20;;
21162;SDS011;10739;52.198;20.908;2023-04-25T06:30:22;15.10;;;13.25;;
21162;SDS011;10739;52.198;20.908;2023-04-25T06:32:51;14.48;;;12.98;;
21162;SDS011;10739;52.198;20.908;2023-04-25T06:35:18;17.13;;;13.73;;
21162;SDS011;10739;52.198;20.908;2023-04-25T06:37:45;16.33;;;14.27;;
21162;SDS011;10739;52.198;20.908;2023-04-25T06:40:12;17.27;;;14.38;;
21162;SDS011;10739;52.198;20.908;2023-04-25T06:42:38;19.80;;;15.05;;
21162;SDS011;10739;52.198;20.908;2023-04-25T06:45:05;16.60;;;14.55;;
21162;SDS011;10739;52.198;20.908;2023-04-25T06:47:32;18.65;;;15.30;;
21162;SDS011;10739;52.198;20.908;2023-04-25T06:49:58;21.65;;;16.77;;
21162;SDS011;10739;52.198;20.908;2023-04-25T06:52:24;25.73;;;17.45;;
21162;SDS011;10739;52.198;20.908;2023-04-25T06:54:50;21.33;;;17.48;;
21162;SDS011;10739;52.198;20.908;2023-04-25T06:57:17;19.13;;;16.63;;
21162;SDS011;10739;52.198;20.908;2023-04-25T06:59:43;19.02;;;15.95;;
21162;SDS011;10739;52.198;20.908;2023-04-25T07:02:10;23.30;;;17.15;;
21162;SDS011;10739;52.198;20.908;2023-04-25T07:04:36;18.58;;;14.80;;
21162;SDS011;10739;52.198;20.908;2023-04-25T07:07:02;16.60;;;14.77;;
21162;SDS011;10739;52.198;20.908;2023-04-25T07:09:29;19.70;;;16.52;;
21162;SDS011;10739;52.198;20.908;2023-04-25T07:11:58;21.88;;;15.43;;
21162;SDS011;10739;52.198;20.908;2023-04-25T07:14:27;20.80;;;15.40;;
21162;SDS011;10739;52.198;20.908;2023-04-25T07:16:53;17.10;;;14.30;;
21162;SDS011;10739;52.198;20.908;2023-04-25T07:19:22;18.52;;;14.02;;
21162;SDS011;10739;52.198;20.908;2023-04-25T07:21:52;16.85;;;14.18;;
21162;SDS011;10739;52.198;20.908;2023-04-25T07:24:18;17.08;;;14.68;;
21162;SDS011;10739;52.198;20.908;2023-04-25T07:26:45;19.55;;;15.43;;
21162;SDS011;10739;52.198;20.908;2023-04-25T07:29:11;20.63;;;16.13;;
21162;SDS011;10739;52.198;20.908;2023-04-25T07:31:38;17.75;;;14.65;;
21162;SDS011;10739;52.198;20.908;2023-04-25T07:34:04;17.13;;;14.82;;
21162;SDS011;10739;52.198;20.908;2023-04-25T07:36:31;17.02;;;13.73;;
21162;SDS011;10739;52.198;20.908;2023-04-25T07:38:58;19.23;;;14.25;;
21162;SDS011;10739;52.198;20.908;2023-04-25T07:41:24;17.65;;;14.32;;
21162;SDS011;10739;52.198;20.908;2023-04-25T07:43:50;19.10;;;14.57;;
21162;SDS011;10739;52.198;20.908;2023-04-25T07:46:17;22.75;;;12.98;;
21162;SDS011;10739;52.198;20.908;2023-04-25T07:48:43;20.35;;;12.43;;
21162;SDS011;10739;52.198;20.908;2023-04-25T07:51:10;14.57;;;11.82;;
21162;SDS011;10739;52.198;20.908;2023-04-25T07:53:36;14.10;;;12.60;;
21162;SDS011;10739;52.198;20.908;2023-04-25T07:56:03;16.25;;;12.95;;
21162;SDS011;10739;52.198;20.908;2023-04-25T07:58:29;13.48;;;12.10;;
21162;SDS011;10739;52.198;20.908;2023-04-25T08:00:56;14.98;;;12.30;;
21162;SDS011;10739;52.198;20.908;2023-04-25T08:03:22;12.02;;;10.65;;
21162;SDS011;10739;52.198;20.908;2023-04-25T08:05:48;14.48;;;10.43;;
21162;SDS011;10739;52.198;20.908;2023-04-25T08:08:15;10.43;;;8.55;;
21162;SDS011;10739;52.198;20.908;2023-04-25T08:10:41;9.20;;;8.30;;
21162;SDS011;10739;52.198;20.908;2023-04-25T08:13:07;8.32;;;7.40;;
21162;SDS011;10739;52.198;20.908;2023-04-25T08:15:34;9.38;;;7.70;;
21162;SDS011;10739;52.198;20.908;2023-04-25T08:18:00;8.52;;;7.55;;
21162;SDS011;10739;52.198;20.908;2023-04-25T08:20:27;8.77;;;7.25;;
21162;SDS011;10739;52.198;20.908;2023-04-25T08:22:53;8.55;;;7.75;;
21162;SDS011;10739;52.198;20.908;2023-04-25T08:25:19;8.05;;;6.93;;
21162;SDS011;10739;52.198;20.908;2023-04-25T08:27:46;9.32;;;6.78;;
21162;SDS011;10739;52.198;20.908;2023-04-25T08:30:12;8.65;;;6.70;;
21162;SDS011;10739;52.198;20.908;2023-04-25T08:32:39;9.02;;;6.57;;
21162;SDS011;10739;52.198;20.908;2023-04-25T08:35:05;8.80;;;6.63;;
21162;SDS011;10739;52.198;20.908;2023-04-25T08:37:32;11.15;;;7.40;;
21162;SDS011;10739;52.198;20.908;2023-04-25T08:39:58;9.05;;;7.35;;
21162;SDS011;10739;52.198;20.908;2023-04-25T08:42:26;7.20;;;6.50;;
21162;SDS011;10739;52.198;20.908;2023-04-25T08:44:54;10.52;;;7.60;;
21162;SDS011;10739;52.198;20.908;2023-04-25T08:47:23;8.38;;;6.75;;
21162;SDS011;10739;52.198;20.908;2023-04-25T08:49:52;8.40;;;6.28;;
21162;SDS011;10739;52.198;20.908;2023-04-25T08:52:23;10.07;;;6.65;;
21162;SDS011;10739;52.198;20.908;2023-04-25T08:54:55;7.07;;;6.03;;
21162;SDS011;10739;52.198;20.908;2023-04-25T08:57:23;8.00;;;6.03;;
21162;SDS011;10739;52.198;20.908;2023-04-25T08:59:50;7.60;;;6.55;;
21162;SDS011;10739;52.198;20.908;2023-04-25T09:02:18;7.10;;;6.00;;
21162;SDS011;10739;52.198;20.908;2023-04-25T09:04:46;7.60;;;6.80;;
21162;SDS011;10739;52.198;20.908;2023-04-25T09:07:14;9.27;;;6.53;;
21162;SDS011;10739;52.198;20.908;2023-04-25T09:09:43;7.50;;;6.70;;
21162;SDS011;10739;52.198;20.908;2023-04-25T09:12:10;7.88;;;6.70;;
21162;SDS011;10739;52.198;20.908;2023-04-25T09:14:36;12.27;;;6.50;;
21162;SDS011;10739;52.198;20.908;2023-04-25T09:17:03;7.40;;;6.70;;
21162;SDS011;10739;52.198;20.908;2023-04-25T09:19:33;7.22;;;6.53;;
21162;SDS011;10739;52.198;20.908;2023-04-25T09:22:04;8.82;;;7.50;;
21162;SDS011;10739;52.198;20.908;2023-04-25T09:27:04;9.63;;;7.47;;
21162;SDS011;10739;52.198;20.908;2023-04-25T09:29:34;8.65;;;7.38;;
21162;SDS011;10739;52.198;20.908;2023-04-25T09:32:19;11.23;;;8.07;;
21162;SDS011;10739;52.198;20.908;2023-04-25T09:34:50;9.23;;;7.82;;
21162;SDS011;10739;52.198;20.908;2023-04-25T09:37:25;12.57;;;9.20;;
21162;SDS011;10739;52.198;20.908;2023-04-25T09:39:56;9.82;;;8.77;;
21162;SDS011;10739;52.198;20.908;2023-04-25T09:42:26;11.13;;;10.02;;
21162;SDS011;10739;52.198;20.908;2023-04-25T09:44:56;12.27;;;10.13;;
21162;SDS011;10739;52.198;20.908;2023-04-25T09:47:25;11.32;;;10.23;;
21162;SDS011;10739;52.198;20.908;2023-04-25T09:49:54;11.77;;;10.50;;
21162;SDS011;10739;52.198;20.908;2023-04-25T09:52:21;11.98;;;10.82;;
21162;SDS011;10739;52.198;20.908;2023-04-25T09:54:50;12.15;;;10.43;;
21162;SDS011;10739;52.198;20.908;2023-04-25T09:57:18;11.13;;;9.93;;
21162;SDS011;10739;52.198;20.908;2023-04-25T09:59:52;10.98;;;9.75;;
21162;SDS011;10739;52.198;20.908;2023-04-25T10:02:24;11.20;;;10.00;;
21162;SDS011;10739;52.198;20.908;2023-04-25T10:04:55;15.30;;;9.93;;
21162;SDS011;10739;52.198;20.908;2023-04-25T10:07:26;11.70;;;10.50;;
21162;SDS011;10739;52.198;20.908;2023-04-25T10:10:00;16.33;;;11.43;;
21162;SDS011;10739;52.198;20.908;2023-04-25T10:12:29;14.02;;;11.57;;
21162;SDS011;10739;52.198;20.908;2023-04-25T10:14:58;17.58;;;12.50;;
21162;SDS011;10739;52.198;20.908;2023-04-25T10:17:26;20.05;;;12.50;;
21162;SDS011;10739;52.198;20.908;2023-04-25T10:19:55;25.35;;;14.10;;
21162;SDS011;10739;52.198;20.908;2023-04-25T10:23:10;17.02;;;15.13;;
21162;SDS011;10739;52.198;20.908;2023-04-25T10:25:13;15.95;;;13.30;;
21162;SDS011;10739;52.198;20.908;2023-04-25T10:27:40;14.95;;;13.38;;
21162;SDS011;10739;52.198;20.908;2023-04-25T10:30:07;17.48;;;14.57;;
21162;SDS011;10739;52.198;20.908;2023-04-25T10:32:41;15.43;;;13.73;;
21162;SDS011;10739;52.198;20.908;2023-04-25T10:37:42;19.65;;;14.70;;
21162;SDS011;10739;52.198;20.908;2023-04-25T10:40:40;16.50;;;12.65;;
21162;SDS011;10739;52.198;20.908;2023-04-25T10:45:59;14.75;;;11.20;;
21162;SDS011;10739;52.198;20.908;2023-04-25T10:48:26;15.18;;;10.90;;
21162;SDS011;10739;52.198;20.908;2023-04-25T10:51:38;14.43;;;10.85;;
21162;SDS011;10739;52.198;20.908;2023-04-25T10:54:00;12.93;;;11.48;;
21162;SDS011;10739;52.198;20.908;2023-04-25T10:59:04;12.68;;;9.90;;
21162;SDS011;10739;52.198;20.908;2023-04-25T11:01:46;13.85;;;9.65;;
21162;SDS011;10739;52.198;20.908;2023-04-25T11:04:20;9.70;;;8.80;;
21162;SDS011;10739;52.198;20.908;2023-04-25T11:10:04;12.15;;;10.57;;
21162;SDS011;10739;52.198;20.908;2023-04-25T11:12:32;12.40;;;10.20;;
21162;SDS011;10739;52.198;20.908;2023-04-25T11:15:02;12.77;;;10.43;;
21162;SDS011;10739;52.198;20.908;2023-04-25T11:17:32;11.00;;;9.90;;
21162;SDS011;10739;52.198;20.908;2023-04-25T11:19:59;11.02;;;9.65;;
21162;SDS011;10739;52.198;20.908;2023-04-25T11:22:26;11.18;;;9.02;;
21162;SDS011;10739;52.198;20.908;2023-04-25T11:24:53;10.90;;;9.80;;
21162;SDS011;10739;52.198;20.908;2023-04-25T11:27:19;12.55;;;9.82;;
21162;SDS011;10739;52.198;20.908;2023-04-25T11:29:47;9.82;;;8.82;;
21162;SDS011;10739;52.198;20.908;2023-04-25T11:32:14;9.32;;;8.43;;
21162;SDS011;10739;52.198;20.908;2023-04-25T11:34:43;8.90;;;8.10;;
21162;SDS011;10739;52.198;20.908;2023-04-25T11:37:10;12.18;;;8.95;;
21162;SDS011;10739;52.198;20.908;2023-04-25T11:39:37;9.15;;;8.25;;
21162;SDS011;10739;52.198;20.908;2023-04-25T11:42:07;10.38;;;9.00;;
21162;SDS011;10739;52.198;20.908;2023-04-25T11:44:34;9.93;;;8.93;;
21162;SDS011;10739;52.198;20.908;2023-04-25T11:47:02;10.82;;;7.97;;
21162;SDS011;10739;52.198;20.908;2023-04-25T11:49:32;11.43;;;8.25;;
21162;SDS011;10739;52.198;20.908;2023-04-25T11:51:58;9.82;;;7.40;;
21162;SDS011;10739;52.198;20.908;2023-04-25T11:54:25;12.00;;;7.32;;
21162;SDS011;10739;52.198;20.908;2023-04-25T11:56:51;8.30;;;6.78;;
21162;SDS011;10739;52.198;20.908;2023-04-25T11:59:17;9.48;;;6.28;;
21162;SDS011;10739;52.198;20.908;2023-04-25T12:01:50;8.38;;;5.70;;
21162;SDS011;10739;52.198;20.908;2023-04-25T12:04:20;6.90;;;5.43;;
21162;SDS011;10739;52.198;20.908;2023-04-25T12:06:49;10.80;;;5.65;;
21162;SDS011;10739;52.198;20.908;2023-04-25T12:09:21;5.68;;;5.18;;
21162;SDS011;10739;52.198;20.908;2023-04-25T12:11:58;6.65;;;4.70;;
21162;SDS011;10739;52.198;20.908;2023-04-25T12:14:30;5.45;;;4.80;;
21162;SDS011;10739;52.198;20.908;2023-04-25T12:17:02;6.18;;;5.05;;
21162;SDS011;10739;52.198;20.908;2023-04-25T12:19:34;7.28;;;5.00;;
21162;SDS011;10739;52.198;20.908;2023-04-25T12:22:02;8.25;;;5.60;;
21162;SDS011;10739;52.198;20.908;2023-04-25T12:27:13;5.72;;;4.80;;
21162;SDS011;10739;52.198;20.908;2023-04-25T12:29:49;9.25;;;5.30;;
21162;SDS011;10739;52.198;20.908;2023-04-25T12:32:21;7.55;;;4.95;;
21162;SDS011;10739;52.198;20.908;2023-04-25T12:34:47;22.50;;;5.28;;
21162;SDS011;10739;52.198;20.908;2023-04-25T12:37:14;8.02;;;5.35;;
21162;SDS011;10739;52.198;20.908;2023-04-25T12:39:41;5.93;;;5.32;;
21162;SDS011;10739;52.198;20.908;2023-04-25T12:42:07;8.10;;;5.20;;
21162;SDS011;10739;52.198;20.908;2023-04-25T12:44:37;8.50;;;5.90;;
21162;SDS011;10739;52.198;20.908;2023-04-25T12:47:03;8.82;;;6.30;;
21162;SDS011;10739;52.198;20.908;2023-04-25T12:49:31;8.40;;;6.28;;
21162;SDS011;10739;52.198;20.908;2023-04-25T12:51:57;7.55;;;5.45;;
21162;SDS011;10739;52.198;20.908;2023-04-25T12:54:24;6.85;;;6.15;;
21162;SDS011;10739;52.198;20.908;2023-04-25T12:56:51;6.43;;;5.72;;
21162;SDS011;10739;52.198;20.908;2023-04-25T12:59:17;6.43;;;5.50;;
21162;SDS011;10739;52.198;20.908;2023-04-25T13:01:45;7.13;;;6.43;;
21162;SDS011;10739;52.198;20.908;2023-04-25T13:04:11;6.43;;;5.60;;
21162;SDS011;10739;52.198;20.908;2023-04-25T13:06:37;7.53;;;6.82;;
21162;SDS011;10739;52.198;20.908;2023-04-25T13:09:04;8.68;;;6.68;;
21162;SDS011;10739;52.198;20.908;2023-04-25T13:11:32;7.88;;;7.07;;
21162;SDS011;10739;52.198;20.908;2023-04-25T13:13:58;8.60;;;7.75;;
21162;SDS011;10739;52.198;20.908;2023-04-25T13:16:25;10.15;;;7.80;;
21162;SDS011;10739;52.198;20.908;2023-04-25T13:18:52;8.82;;;7.10;;
21162;SDS011;10739;52.198;20.908;2023-04-25T13:21:18;9.05;;;6.78;;
21162;SDS011;10739;52.198;20.908;2023-04-25T13:23:44;7.32;;;6.63;;
21162;SDS011;10739;52.198;20.908;2023-04-25T13:26:11;8.27;;;6.70;;
21162;SDS011;10739;52.198;20.908;2023-04-25T13:28:38;7.47;;;6.72;;
21162;SDS011;10739;52.198;20.908;2023-04-25T13:31:05;8.10;;;6.82;;
21162;SDS011;10739;52.198;20.908;2023-04-25T13:33:32;8.05;;;7.25;;
21162;SDS011;10739;52.198;20.908;2023-04-25T13:36:00;8.05;;;7.25;;
21162;SDS011;10739;52.198;20.908;2023-04-25T13:38:27;8.70;;;6.95;;
21162;SDS011;10739;52.198;20.908;2023-04-25T13:40:53;8.48;;;7.68;;
21162;SDS011;10739;52.198;20.908;2023-04-25T13:43:19;7.88;;;6.78;;
21162;SDS011;10739;52.198;20.908;2023-04-25T13:45:48;6.65;;;6.05;;
21162;SDS011;10739;52.198;20.908;2023-04-25T13:48:15;7.05;;;6.35;;
21162;SDS011;10739;52.198;20.908;2023-04-25T13:50:55;8.05;;;6.50;;
21162;SDS011;10739;52.198;20.908;2023-04-25T13:53:21;7.32;;;6.60;;
21162;SDS011;10739;52.198;20.908;2023-04-25T13:55:47;7.18;;;6.47;;
21162;SDS011;10739;52.198;20.908;2023-04-25T13:58:14;7.03;;;6.32;;
21162;SDS011;10739;52.198;20.908;2023-04-25T14:00:40;7.13;;;6.43;;
21162;SDS011;10739;52.198;20.908;2023-04-25T14:03:08;8.38;;;6.38;;
21162;SDS011;10739;52.198;20.908;2023-04-25T14:05:35;6.50;;;5.90;;
21162;SDS011;10739;52.198;20.908;2023-04-25T14:08:08;7.80;;;5.68;;
21162;SDS011;10739;52.198;20.908;2023-04-25T14:10:35;6.80;;;5.93;;
21162;SDS011;10739;52.198;20.908;2023-04-25T14:13:02;7.57;;;5.70;;
21162;SDS011;10739;52.198;20.908;2023-04-25T14:15:33;6.70;;;6.00;;
21162;SDS011;10739;52.198;20.908;2023-04-25T14:18:00;9.73;;;6.40;;
21162;SDS011;10739;52.198;20.908;2023-04-25T14:20:27;6.50;;;5.88;;
21162;SDS011;10739;52.198;20.908;2023-04-25T14:22:55;6.88;;;6.22;;
21162;SDS011;10739;52.198;20.908;2023-04-25T14:25:23;7.18;;;6.20;;
21162;SDS011;10739;52.198;20.908;2023-04-25T14:27:50;6.57;;;5.45;;
21162;SDS011;10739;52.198;20.908;2023-04-25T14:30:17;7.85;;;5.70;;
21162;SDS011;10739;52.198;20.908;2023-04-25T14:32:46;8.02;;;6.40;;
21162;SDS011;10739;52.198;20.908;2023-04-25T14:35:14;7.75;;;5.78;;